Time;durP1;ratioP1;P1;durP2;ratioP2;P2;SDS_P1;SDS_P2;PMS_P1;PMS_P2;Temp;Humidity;BMP_temperature;BMP_pressure;BME280_temperature;BME280_humidity;BME280_pressure;Samples;Min_cycle;Max_cycle;Signal;HPM_P1;HPM_P2
2022/09/13 00:01:41;;;;;;;5.75;3.10;;;;;;;12.82;78.68;100257.22;5107465;28;20051;-65
2022/09/13 00:04:07;;;;;;;4.75;3.03;;;;;;;12.82;77.74;100254.53;5107929;28;20035;-65
2022/09/13 00:06:32;;;;;;;3.35;3.05;;;;;;;12.77;79.07;100247.91;5108360;27;20024;-65
2022/09/13 00:09:00;;;;;;;3.55;2.75;;;;;;;12.72;78.86;100250.19;5105746;28;20051;-66
2022/09/13 00:11:27;;;;;;;3.90;2.65;;;;;;;12.68;78.36;100249.66;5105874;28;20030;-67
2022/09/13 00:13:55;;;;;;;5.95;3.30;;;;;;;12.62;78.31;100252.94;5107504;28;20030;-65
2022/09/13 00:16:23;;;;;;;3.10;2.65;;;;;;;12.61;78.37;100258.47;5107829;28;20153;-65
2022/09/13 00:18:50;;;;;;;7.90;3.60;;;;;;;12.56;78.89;100256.22;5106930;28;20139;-66
2022/09/13 00:21:18;;;;;;;6.75;3.28;;;;;;;12.52;79.21;100254.00;5106623;28;20035;-66
2022/09/13 00:23:49;;;;;;;7.05;3.40;;;;;;;12.42;79.21;100245.97;5106872;28;20493;-65
2022/09/13 00:26:18;;;;;;;4.78;3.03;;;;;;;12.41;80.21;100246.13;5108046;27;20050;-66
2022/09/13 00:28:46;;;;;;;3.50;3.17;;;;;;;12.40;79.66;100250.63;5106840;28;20027;-67
2022/09/13 00:31:12;;;;;;;5.82;3.05;;;;;;;12.32;79.67;100255.06;5106435;28;20027;-67
2022/09/13 00:33:37;;;;;;;4.85;3.22;;;;;;;12.32;80.21;100247.81;5105913;28;20402;-67
2022/09/13 00:36:08;;;;;;;4.18;3.25;;;;;;;12.29;80.55;100253.50;5107404;27;20054;-66
2022/09/13 00:38:38;;;;;;;9.02;3.08;;;;;;;12.27;80.41;100255.50;5106558;28;20031;-66
2022/09/13 00:41:07;;;;;;;4.13;2.95;;;;;;;12.22;80.79;100257.78;5105569;28;20039;-65
2022/09/13 00:43:56;;;;;;;5.50;3.30;;;;;;;12.13;80.96;100244.38;5106611;28;20137;-65
2022/09/13 00:46:28;;;;;;;3.42;2.75;;;;;;;12.16;80.68;100255.66;5105895;28;20403;-65
2022/09/13 00:49:19;;;;;;;5.50;3.20;;;;;;;12.16;80.72;100260.22;5105397;28;20031;-66
2022/09/13 00:51:51;;;;;;;6.03;3.03;;;;;;;12.10;81.01;100252.72;5092045;28;20057;-66
2022/09/13 00:54:21;;;;;;;5.35;3.30;;;;;;;12.06;80.62;100256.72;5105762;28;20037;-66
2022/09/13 00:56:51;;;;;;;4.15;2.80;;;;;;;12.01;81.05;100264.34;5105222;28;20057;-65
2022/09/13 00:59:28;;;;;;;4.45;3.30;;;;;;;11.99;81.29;100255.59;5104284;28;20066;-65
2022/09/13 01:01:56;;;;;;;3.22;2.92;;;;;;;11.96;81.04;100264.78;5106178;28;20027;-66
2022/09/13 01:04:25;;;;;;;4.35;3.00;;;;;;;11.93;81.08;100266.94;5105801;28;20382;-65
2022/09/13 01:06:55;;;;;;;4.28;2.80;;;;;;;11.90;81.33;100270.72;5109083;27;20028;-68
2022/09/13 01:09:21;;;;;;;3.97;3.22;;;;;;;11.87;81.75;100271.03;5105468;28;20071;-66
2022/09/13 01:12:07;;;;;;;4.95;3.25;;;;;;;11.85;82.16;100277.53;5103736;28;20471;-67
2022/09/13 01:14:33;;;;;;;7.40;3.67;;;;;;;11.81;82.40;100279.66;5103027;27;20110;-64
2022/09/13 01:16:59;;;;;;;3.30;3.00;;;;;;;11.79;82.62;100284.34;5106646;27;20097;-66
2022/09/13 01:19:25;;;;;;;4.85;3.30;;;;;;;11.72;83.70;100277.84;5105952;28;20031;-66
2022/09/13 01:22:11;;;;;;;4.03;3.42;;;;;;;11.71;83.41;100281.53;5106330;28;20034;-66
2022/09/13 01:24:59;;;;;;;4.68;3.15;;;;;;;11.69;84.11;100283.50;5104634;28;20034;-66
2022/09/13 01:27:36;;;;;;;5.88;3.38;;;;;;;11.69;83.82;100277.25;5105021;28;20042;-67
2022/09/13 01:30:12;;;;;;;5.15;3.10;;;;;;;11.67;84.03;100272.03;5105907;28;20042;-66
2022/09/13 01:32:46;;;;;;;6.50;3.50;;;;;;;11.63;83.55;100273.31;5104859;28;20459;-67
2022/09/13 01:35:43;;;;;;;3.45;3.13;;;;;;;11.62;83.44;100279.69;5105006;28;20039;-65
2022/09/13 01:38:31;;;;;;;5.70;3.28;;;;;;;11.57;83.04;100272.00;5105440;28;20055;-65
2022/09/13 01:41:41;;;;;;;5.00;3.80;;;;;;;11.55;83.23;100273.16;5104983;28;20032;-65
2022/09/13 01:44:28;;;;;;;4.32;3.30;;;;;;;11.53;84.10;100273.28;5104377;28;20054;-66
2022/09/13 01:47:08;;;;;;;4.47;3.20;;;;;;;11.51;83.63;100272.56;5104171;28;20400;-65
2022/09/13 01:49:47;;;;;;;4.38;3.13;;;;;;;11.42;84.50;100262.69;5105314;27;20023;-66
2022/09/13 01:52:31;;;;;;;6.78;3.67;;;;;;;11.46;83.55;100272.16;5105464;28;20023;-65
2022/09/13 01:55:07;;;;;;;4.47;3.40;;;;;;;11.42;83.04;100275.28;5105495;27;20027;-65
2022/09/13 01:57:36;;;;;;;5.03;3.35;;;;;;;11.42;83.45;100280.66;5104767;28;20887;-66
2022/09/13 02:00:07;;;;;;;5.82;3.60;;;;;;;11.39;83.20;100270.19;5105892;28;20462;-65
2022/09/13 02:02:50;;;;;;;7.03;3.90;;;;;;;11.38;82.00;100274.69;5105282;28;20027;-66
2022/09/13 02:05:34;;;;;;;6.15;3.30;;;;;;;11.37;82.01;100277.53;5105716;27;20081;-67
2022/09/13 02:08:05;;;;;;;4.53;3.42;;;;;;;11.32;81.17;100267.19;5107659;28;20528;-67
2022/09/13 02:10:40;;;;;;;5.63;3.63;;;;;;;11.31;81.29;100273.56;5107342;28;20036;-67
2022/09/13 02:13:10;;;;;;;8.55;3.90;;;;;;;11.25;81.60;100255.34;5106912;28;20575;-67
2022/09/13 02:15:41;;;;;;;5.85;4.00;;;;;;;11.23;81.45;100254.63;5106230;28;20029;-67
2022/09/13 02:18:21;;;;;;;4.68;3.45;;;;;;;11.23;82.80;100267.22;5106854;28;20027;-67
2022/09/13 02:20:50;;;;;;;4.50;3.83;;;;;;;11.16;82.89;100263.38;5106602;28;20023;-67
2022/09/13 02:23:23;;;;;;;6.30;4.03;;;;;;;11.13;83.13;100267.19;5104704;28;20527;-67
2022/09/13 02:25:52;;;;;;;4.30;3.42;;;;;;;11.00;83.93;100241.63;5104405;28;20573;-67
2022/09/13 02:28:22;;;;;;;6.28;3.97;;;;;;;11.05;83.79;100256.31;5105360;28;20027;-67
2022/09/13 02:30:52;;;;;;;5.40;3.97;;;;;;;11.00;84.35;100255.88;5103257;28;20335;-67
2022/09/13 02:33:20;;;;;;;6.75;3.90;;;;;;;11.01;85.27;100259.41;5102349;28;20493;-67
2022/09/13 02:36:07;;;;;;;6.05;3.70;;;;;;;10.99;85.88;100264.06;5104776;28;20026;-67
2022/09/13 02:38:49;;;;;;;5.78;3.60;;;;;;;10.97;85.62;100256.13;5104351;28;20552;-67
2022/09/13 02:41:27;;;;;;;7.57;3.40;;;;;;;10.95;85.33;100260.81;5103934;28;20044;-67
2022/09/13 02:44:00;;;;;;;4.07;3.30;;;;;;;10.94;84.74;100256.41;5104942;28;20535;-67
2022/09/13 02:46:57;;;;;;;5.57;3.50;;;;;;;10.89;85.17;100258.69;5104933;28;20038;-67
2022/09/13 02:50:01;;;;;;;5.82;3.70;;;;;;;10.89;83.90;100256.00;5064764;28;20494;-67
2022/09/13 02:52:49;;;;;;;8.05;3.22;;;;;;;10.85;83.73;100261.78;5062164;28;20036;-67
2022/09/13 02:55:24;;;;;;;4.80;3.08;;;;;;;10.80;83.65;100261.34;5105008;28;20108;-67
2022/09/13 02:58:07;;;;;;;5.32;3.40;;;;;;;10.75;84.00;100264.44;5109982;28;20023;-67
2022/09/13 03:00:32;;;;;;;4.80;3.63;;;;;;;10.67;83.68;100260.72;5112384;27;20542;-67
2022/09/13 03:03:03;;;;;;;9.05;3.60;;;;;;;10.60;83.77;100252.38;5110428;28;20063;-67
2022/09/13 03:05:29;;;;;;;5.88;3.45;;;;;;;10.62;84.20;100260.31;5110620;28;20386;-67
2022/09/13 03:07:56;;;;;;;3.67;3.33;;;;;;;10.60;84.68;100264.94;5111520;27;20088;-67
2022/09/13 03:10:22;;;;;;;5.65;3.65;;;;;;;10.55;84.79;100246.56;5109845;28;20734;-67
2022/09/13 03:12:59;;;;;;;4.95;3.85;;;;;;;10.56;85.20;100253.66;5110820;28;20097;-66
2022/09/13 03:15:51;;;;;;;6.53;3.83;;;;;;;10.58;85.13;100262.38;5110657;28;20107;-66
2022/09/13 03:18:29;;;;;;;5.05;3.85;;;;;;;10.54;85.57;100260.97;5108712;28;20024;-66
2022/09/13 03:21:33;;;;;;;8.38;4.13;;;;;;;10.54;85.75;100265.47;5108943;28;20031;-67
2022/09/13 03:24:17;;;;;;;10.50;3.97;;;;;;;10.50;85.76;100269.41;5104436;28;20050;-67
2022/09/13 03:26:45;;;;;;;10.20;4.00;;;;;;;10.50;86.38;100267.59;5109062;28;20571;-66
2022/09/13 03:29:23;;;;;;;9.68;4.28;;;;;;;10.48;86.54;100263.38;5109254;28;20107;-67
2022/09/13 03:32:17;;;;;;;9.32;3.95;;;;;;;10.46;87.01;100262.63;5107590;28;20024;-67
2022/09/13 03:34:51;;;;;;;5.80;4.00;;;;;;;10.40;87.31;100264.03;5109901;27;20759;-67
2022/09/13 03:37:42;;;;;;;;;;;;;;;10.35;88.08;100258.22;5109462;28;20067;-67
2022/09/13 03:40:10;;;;;;;7.95;4.05;;;;;;;10.33;88.77;100252.16;5101365;28;19920;-66
2022/09/13 03:43:03;;;;;;;7.57;3.72;;;;;;;10.29;89.40;100250.72;5108954;28;20038;-66
2022/09/13 03:45:35;;;;;;;4.55;3.83;;;;;;;10.27;89.74;100260.72;5107622;27;20031;-66
2022/09/13 03:48:03;;;;;;;8.23;3.83;;;;;;;10.29;90.63;100266.78;5108563;28;20028;-66
2022/09/13 03:50:30;;;;;;;5.93;3.80;;;;;;;10.32;90.44;100260.34;5108504;28;20023;-66
2022/09/13 03:53:06;;;;;;;7.53;4.00;;;;;;;10.23;89.85;100228.97;5108983;28;20085;-66
2022/09/13 03:55:37;;;;;;;5.88;4.10;;;;;;;10.34;88.42;100245.81;5109758;27;20027;-66
2022/09/13 03:58:02;;;;;;;10.05;4.00;;;;;;;10.33;87.54;100249.47;5108797;28;20134;-65
2022/09/13 04:00:28;;;;;;;5.95;4.15;;;;;;;10.30;87.83;100243.53;5108130;28;20047;-65
2022/09/13 04:02:54;;;;;;;8.55;4.20;;;;;;;10.26;87.48;100245.66;5109727;28;20088;-66
2022/09/13 04:05:20;;;;;;;7.60;3.50;;;;;;;10.27;87.98;100246.47;5109035;28;20024;-67
2022/09/13 04:07:46;;;;;;;6.82;3.70;;;;;;;10.13;88.37;100231.59;5110468;27;20046;-65
2022/09/13 04:10:11;;;;;;;7.13;4.63;;;;;;;10.26;88.78;100250.16;5109616;28;20498;-66
2022/09/13 04:12:37;;;;;;;8.63;4.47;;;;;;;10.22;89.17;100249.56;5108429;28;20039;-66
2022/09/13 04:15:04;;;;;;;8.55;4.03;;;;;;;10.28;89.26;100259.75;5111402;27;20027;-66
2022/09/13 04:17:29;;;;;;;6.43;4.28;;;;;;;10.31;88.68;100258.63;5110267;27;20054;-66
2022/09/13 04:19:54;;;;;;;7.85;4.60;;;;;;;10.23;89.44;100245.06;5107719;28;20031;-65
2022/09/13 04:22:20;;;;;;;7.97;4.20;;;;;;;10.31;89.38;100255.94;5107428;27;20032;-65
2022/09/13 04:24:45;;;;;;;4.95;4.00;;;;;;;10.29;89.15;100261.44;5108796;27;20053;-66
2022/09/13 04:27:11;;;;;;;8.15;4.18;;;;;;;10.32;89.07;100255.81;5107741;28;20036;-66
2022/09/13 04:29:37;;;;;;;10.50;3.92;;;;;;;10.29;89.50;100250.72;5107839;28;20019;-66
2022/09/13 04:32:02;;;;;;;10.90;4.25;;;;;;;10.29;89.37;100255.25;5106958;28;20020;-66
2022/09/13 04:34:28;;;;;;;6.20;3.97;;;;;;;10.26;89.22;100252.81;5112201;27;20024;-66
2022/09/13 04:36:54;;;;;;;8.40;4.18;;;;;;;10.26;88.51;100251.00;5107057;28;20092;-68
2022/09/13 04:39:20;;;;;;;7.40;4.07;;;;;;;10.24;89.17;100250.28;5107087;28;20065;-69
2022/09/13 04:41:47;;;;;;;6.65;4.40;;;;;;;10.28;88.99;100254.38;5106822;28;20036;-68
2022/09/13 04:44:14;;;;;;;7.28;3.88;;;;;;;10.28;89.42;100248.16;5106507;28;20031;-68
2022/09/13 04:46:40;;;;;;;13.30;5.10;;;;;;;10.30;89.07;100248.88;5107201;28;20047;-67
2022/09/13 04:49:06;;;;;;;10.50;4.53;;;;;;;10.32;89.18;100253.13;5106895;28;20019;-67
2022/09/13 04:51:31;;;;;;;8.38;4.30;;;;;;;10.35;88.37;100252.03;5106978;28;20364;-67
2022/09/13 04:53:57;;;;;;;13.25;4.53;;;;;;;10.40;88.48;100247.09;5107438;27;20026;-67
2022/09/13 04:56:23;;;;;;;15.23;4.30;;;;;;;10.43;88.40;100252.19;5106957;27;20027;-68
2022/09/13 04:58:53;;;;;;;27.02;5.65;;;;;;;10.46;88.87;100246.56;5104799;28;20159;-68
2022/09/13 05:01:20;;;;;;;25.75;5.47;;;;;;;10.47;88.79;100238.38;5105343;28;20096;-68
2022/09/13 05:03:45;;;;;;;21.42;5.63;;;;;;;10.51;89.47;100241.66;5104930;28;20040;-66
2022/09/13 05:06:14;;;;;;;22.75;5.30;;;;;;;10.58;89.93;100240.09;5106459;27;20034;-67
2022/09/13 05:08:39;;;;;;;19.05;5.65;;;;;;;10.56;90.30;100231.34;5103036;28;20124;-66
2022/09/13 05:11:06;;;;;;;22.83;5.88;;;;;;;10.68;91.20;100240.97;5103634;28;20024;-67
2022/09/13 05:13:32;;;;;;;15.00;5.57;;;;;;;10.76;91.62;100250.03;5102622;28;20027;-67
2022/09/13 05:16:07;;;;;;;16.92;5.68;;;;;;;10.78;91.89;100247.22;5102737;27;20502;-67
2022/09/13 05:18:34;;;;;;;16.92;6.32;;;;;;;10.82;91.80;100238.75;5099750;27;20035;-68
2022/09/13 05:21:01;;;;;;;22.08;6.45;;;;;;;10.97;92.07;100248.09;5104860;28;20023;-68
2022/09/13 05:23:28;;;;;;;14.23;5.70;;;;;;;11.07;92.67;100254.31;5105979;28;20031;-66
2022/09/13 05:25:54;;;;;;;18.90;6.38;;;;;;;11.14;92.44;100260.00;5105601;28;20019;-68
2022/09/13 05:28:21;;;;;;;17.60;6.40;;;;;;;11.25;92.53;100265.22;5106003;28;20399;-66
2022/09/13 05:31:07;;;;;;;25.40;6.55;;;;;;;11.29;92.62;100255.91;5106225;28;20024;-67
2022/09/13 05:33:35;;;;;;;18.73;7.25;;;;;;;11.52;93.09;100266.22;5105604;28;20042;-67
2022/09/13 05:36:02;;;;;;;27.30;7.68;;;;;;;11.67;93.02;100263.13;5106378;28;20027;-67
2022/09/13 05:38:27;;;;;;;18.17;7.65;;;;;;;11.84;92.34;100265.09;5105675;28;20028;-67
2022/09/13 05:40:58;;;;;;;19.30;6.63;;;;;;;11.92;91.47;100247.25;5108166;27;20147;-67
2022/09/13 05:43:26;;;;;;;13.32;6.80;;;;;;;12.21;91.00;100274.91;5105843;28;20038;-67
2022/09/13 05:46:03;;;;;;;23.77;7.90;;;;;;;12.35;90.04;100255.59;5107283;27;20031;-67
2022/09/13 05:48:29;;;;;;;27.38;15.07;;;;;;;12.54;88.78;100249.31;5106021;27;20027;-67
2022/09/13 05:50:55;;;;;;;25.13;9.13;;;;;;;12.72;87.82;100252.88;5106288;27;20023;-67
2022/09/13 05:53:20;;;;;;;20.25;6.88;;;;;;;12.97;86.44;100254.88;5105142;28;20028;-67
2022/09/13 05:55:46;;;;;;;22.70;6.82;;;;;;;13.10;84.39;100250.81;5105135;28;20038;-68
2022/09/13 05:58:11;;;;;;;18.30;6.30;;;;;;;13.26;84.13;100261.78;5107274;27;20088;-66
2022/09/13 06:00:37;;;;;;;19.02;6.45;;;;;;;13.41;83.24;100256.69;5104848;28;20382;-67
2022/09/13 06:03:02;;;;;;;21.92;6.15;;;;;;;13.58;82.81;100247.78;5108298;27;20051;-66
2022/09/13 06:05:28;;;;;;;10.32;5.43;;;;;;;13.76;81.81;100247.75;5105685;27;20365;-66
2022/09/13 06:07:53;;;;;;;23.15;6.38;;;;;;;13.96;80.95;100233.91;5105634;28;20027;-67
2022/09/13 06:10:19;;;;;;;11.80;5.15;;;;;;;14.26;79.36;100249.66;5107034;27;20066;-68
2022/09/13 06:12:45;;;;;;;7.32;5.25;;;;;;;14.50;76.99;100252.47;5105425;27;20035;-66
2022/09/13 06:15:10;;;;;;;15.68;5.97;;;;;;;14.70;74.46;100245.00;5105403;27;20106;-68
2022/09/13 06:17:36;;;;;;;9.13;4.93;;;;;;;14.94;72.01;100248.63;5106440;27;20019;-68
2022/09/13 06:20:02;;;;;;;10.63;5.20;;;;;;;15.13;70.52;100251.00;5106771;27;20061;-68
2022/09/13 06:22:32;;;;;;;13.60;5.18;;;;;;;15.31;71.38;100245.47;5106337;27;20026;-68
2022/09/13 06:24:58;;;;;;;10.10;4.53;;;;;;;15.56;71.80;100272.41;5104134;28;20035;-68
2022/09/13 06:27:23;;;;;;;15.60;6.13;;;;;;;15.74;69.23;100256.88;5105851;27;20474;-66
2022/09/13 06:29:49;;;;;;;9.75;5.25;;;;;;;16.06;66.64;100249.75;5103765;28;20054;-68
2022/09/13 06:32:14;;;;;;;8.07;5.22;;;;;;;16.23;67.05;100259.53;5103894;28;20027;-67
2022/09/13 06:34:40;;;;;;;8.43;5.57;;;;;;;16.54;64.46;100266.75;5103941;28;20027;-66
2022/09/13 06:37:05;;;;;;;7.38;5.70;;;;;;;16.81;62.80;100265.47;5104530;28;20020;-68
2022/09/13 06:39:31;;;;;;;6.93;4.70;;;;;;;16.94;63.55;100269.31;5103053;28;20027;-68
2022/09/13 06:41:56;;;;;;;15.23;5.85;;;;;;;17.17;62.08;100275.63;5104643;28;20069;-67
2022/09/13 06:44:22;;;;;;;11.60;5.18;;;;;;;17.27;62.19;100275.41;5106324;28;20023;-67
2022/09/13 06:46:47;;;;;;;10.45;5.50;;;;;;;17.46;61.81;100275.81;5104642;28;20031;-67
2022/09/13 06:49:13;;;;;;;11.75;5.07;;;;;;;17.73;61.16;100278.00;5104276;28;20474;-66
2022/09/13 06:51:38;;;;;;;14.77;5.70;;;;;;;17.98;60.35;100268.63;5106872;28;20374;-65
2022/09/13 06:54:04;;;;;;;20.10;5.10;;;;;;;18.09;59.94;100272.78;5105551;28;20103;-66
2022/09/13 06:56:35;;;;;;;14.00;5.50;;;;;;;18.25;60.38;100271.78;5102969;28;20027;-65
2022/09/13 06:59:03;;;;;;;10.32;4.13;;;;;;;18.40;60.09;100259.06;5103594;28;20096;-66
2022/09/13 07:01:37;;;;;;;12.70;4.20;;;;;;;18.76;59.09;100265.47;5102565;28;20024;-66
2022/09/13 07:04:09;;;;;;;11.40;4.38;;;;;;;19.10;56.91;100266.56;5104212;28;20084;-66
2022/09/13 07:06:37;;;;;;;8.77;4.18;;;;;;;19.33;55.17;100274.59;5103734;28;20053;-66
2022/09/13 07:09:05;;;;;;;11.88;4.05;;;;;;;19.41;55.52;100263.59;5103487;28;20752;-65
2022/09/13 07:11:34;;;;;;;9.88;3.63;;;;;;;19.65;55.09;100268.66;5103242;28;20019;-66
2022/09/13 07:14:00;;;;;;;12.95;4.78;;;;;;;19.97;53.38;100258.09;5107517;28;20035;-66
2022/09/13 07:16:28;;;;;;;10.48;3.78;;;;;;;20.15;52.31;100263.94;5105918;28;20070;-66
2022/09/13 07:18:58;;;;;;;9.15;3.88;;;;;;;20.37;50.94;100259.25;5101983;28;20028;-66
2022/09/13 07:21:25;;;;;;;9.82;3.45;;;;;;;20.60;48.94;100254.38;5101715;28;20058;-66
2022/09/13 07:23:52;;;;;;;6.82;3.15;;;;;;;20.83;49.05;100259.56;5105064;28;20035;-66
2022/09/13 07:26:18;;;;;;;10.57;3.38;;;;;;;21.01;48.46;100257.16;5105564;27;20479;-66
2022/09/13 07:28:45;;;;;;;5.25;3.05;;;;;;;21.23;47.55;100254.09;5104340;27;20032;-66
2022/09/13 07:31:16;;;;;;;4.63;2.40;;;;;;;21.55;46.47;100249.78;5107530;28;20046;-67
2022/09/13 07:33:42;;;;;;;5.13;2.60;;;;;;;21.93;44.19;100253.66;5103641;28;20371;-67
2022/09/13 07:36:10;;;;;;;5.32;2.47;;;;;;;22.15;43.89;100252.38;5107191;28;20023;-68
2022/09/13 07:38:37;;;;;;;2.67;1.95;;;;;;;22.42;42.86;100245.00;5105719;28;20100;-68
2022/09/13 07:41:05;;;;;;;6.70;1.88;;;;;;;22.75;41.80;100252.13;5105296;27;20543;-68
2022/09/13 07:43:33;;;;;;;2.97;1.80;;;;;;;23.00;41.50;100247.63;5108212;28;20464;-68
2022/09/13 07:46:09;;;;;;;2.83;1.80;;;;;;;23.42;39.12;100255.25;5109370;28;20115;-68
2022/09/13 07:48:38;;;;;;;2.92;1.83;;;;;;;23.60;39.25;100249.03;5106707;28;20479;-68
2022/09/13 07:51:11;;;;;;;4.85;2.10;;;;;;;23.92;39.26;100250.69;5108665;28;20538;-68
2022/09/13 07:53:38;;;;;;;4.32;1.55;;;;;;;24.43;38.63;100254.06;5107669;28;20035;-66
2022/09/13 07:56:16;;;;;;;3.92;1.83;;;;;;;25.04;37.38;100234.84;5107854;28;20028;-67
2022/09/13 07:58:44;;;;;;;6.93;1.60;;;;;;;25.77;36.44;100242.75;5105331;28;20501;-67
2022/09/13 08:01:14;;;;;;;2.38;1.73;;;;;;;26.64;34.32;100232.84;5103853;28;20024;-66
2022/09/13 08:03:40;;;;;;;5.85;1.92;;;;;;;27.72;33.09;100237.31;5104835;27;20073;-65
2022/09/13 08:06:06;;;;;;;3.67;1.70;;;;;;;28.89;30.82;100228.78;5103963;27;20055;-66
2022/09/13 08:08:33;;;;;;;3.22;1.58;;;;;;;29.91;29.61;100236.09;5107095;27;20049;-66
2022/09/13 08:11:00;;;;;;;5.32;1.58;;;;;;;31.02;27.76;100226.72;5105256;28;20177;-66
2022/09/13 08:13:27;;;;;;;1.85;1.30;;;;;;;31.41;26.76;100225.25;5106243;28;20028;-66
2022/09/13 08:15:53;;;;;;;2.97;1.30;;;;;;;32.34;26.35;100240.66;5107471;27;20036;-66
2022/09/13 08:18:19;;;;;;;2.20;1.50;;;;;;;33.22;24.93;100239.06;5106382;28;20030;-67
2022/09/13 08:20:44;;;;;;;5.93;2.10;;;;;;;33.46;24.78;100221.47;5108287;28;20023;-67
2022/09/13 08:23:11;;;;;;;8.40;1.73;;;;;;;33.42;24.61;100231.50;5109352;28;20016;-68
2022/09/13 08:25:37;;;;;;;2.30;1.33;;;;;;;33.66;24.14;100228.88;5107837;28;20082;-66
2022/09/13 08:28:15;;;;;;;8.02;1.90;;;;;;;33.72;24.44;100236.06;5108184;28;20532;-64
2022/09/13 08:30:42;;;;;;;3.75;1.67;;;;;;;33.47;24.14;100227.88;5107888;27;20031;-67
2022/09/13 08:33:08;;;;;;;3.70;1.50;;;;;;;33.36;24.03;100234.63;5107920;28;20467;-67
2022/09/13 08:35:34;;;;;;;1.70;1.40;;;;;;;33.49;23.94;100232.03;5107566;28;20089;-66
2022/09/13 08:38:00;;;;;;;3.05;1.33;;;;;;;33.49;24.15;100222.88;5107817;28;20491;-66
2022/09/13 08:40:30;;;;;;;2.85;1.40;;;;;;;33.66;23.25;100226.91;5107367;28;20028;-67
2022/09/13 08:43:19;;;;;;;2.30;1.50;;;;;;;34.41;22.78;100233.91;5107471;28;20042;-67
2022/09/13 08:46:11;;;;;;;3.30;1.50;;;;;;;33.72;23.61;100228.53;5107708;28;20023;-66
2022/09/13 08:48:43;;;;;;;5.40;1.70;;;;;;;33.36;23.84;100226.28;5082357;27;20044;-67
2022/09/13 08:51:22;;;;;;;2.70;1.38;;;;;;;33.48;23.34;100229.53;5107350;28;20134;-65
2022/09/13 08:53:48;;;;;;;1.40;1.20;;;;;;;33.36;23.46;100229.06;5105806;28;20027;-65
2022/09/13 08:56:23;;;;;;;2.13;1.30;;;;;;;33.59;22.94;100220.81;5107316;28;20542;-66
2022/09/13 08:59:04;;;;;;;1.65;1.27;;;;;;;34.10;22.83;100218.53;5105491;28;20050;-66
2022/09/13 09:01:58;;;;;;;3.80;1.48;;;;;;;34.49;22.36;100217.38;5106440;28;20027;-66
2022/09/13 09:04:27;;;;;;;2.42;1.10;;;;;;;35.18;21.84;100214.13;5104940;28;20066;-66
2022/09/13 09:07:10;;;;;;;4.10;1.20;;;;;;;35.73;21.35;100210.59;5105062;28;20031;-67
2022/09/13 09:09:43;;;;;;;2.90;1.27;;;;;;;35.63;20.85;100207.09;5106289;27;20043;-67
2022/09/13 09:12:27;;;;;;;3.30;1.27;;;;;;;35.83;20.49;100206.81;5104915;28;20098;-68
2022/09/13 09:15:04;;;;;;;5.85;1.38;;;;;;;35.76;21.13;100206.34;5106043;28;20031;-66
2022/09/13 09:17:45;;;;;;;1.55;1.10;;;;;;;36.11;20.56;100203.00;5106547;28;20471;-66
2022/09/13 09:20:22;;;;;;;1.50;1.15;;;;;;;35.70;20.91;100207.53;5105318;28;20024;-66
2022/09/13 09:22:51;;;;;;;3.13;1.10;;;;;;;35.19;21.47;100203.78;5105917;28;20020;-66
2022/09/13 09:25:17;;;;;;;1.05;0.93;;;;;;;35.13;21.36;100202.19;5106541;28;20368;-66
2022/09/13 09:27:42;;;;;;;1.90;1.13;;;;;;;34.55;21.65;100198.66;5107816;28;20058;-66
2022/09/13 09:30:14;;;;;;;4.35;1.02;;;;;;;34.91;21.06;100199.94;5106697;28;20023;-66
2022/09/13 09:33:03;;;;;;;1.65;1.08;;;;;;;36.13;20.32;100192.34;5107570;28;20059;-66
2022/09/13 09:35:40;;;;;;;1.98;1.38;;;;;;;35.92;20.30;100196.63;5107202;28;20031;-67
2022/09/13 09:38:32;;;;;;;4.18;1.30;;;;;;;36.31;19.94;100186.75;5104126;28;20020;-67
2022/09/13 09:41:05;;;;;;;1.30;1.00;;;;;;;36.23;20.03;100183.78;5106493;28;20031;-66
2022/09/13 09:43:59;;;;;;;3.13;1.10;;;;;;;35.89;20.41;100186.91;5105332;28;20081;-66
2022/09/13 09:46:32;;;;;;;3.78;1.20;;;;;;;35.24;20.65;100171.09;5082815;28;20062;-67
2022/09/13 09:52:15;;;;;;;1.52;1.10;;;;;;;32.81;23.08;100179.19;5084707;28;20034;-66
2022/09/13 09:54:40;;;;;;;4.13;1.40;;;;;;;31.91;24.28;100193.97;5106225;28;20521;-66
2022/09/13 09:57:06;;;;;;;2.95;1.35;;;;;;;31.31;25.20;100183.63;5106435;28;20027;-66
2022/09/13 09:59:33;;;;;;;8.60;1.50;;;;;;;30.69;25.67;100168.06;5106042;28;20118;-67
2022/09/13 10:02:14;;;;;;;2.95;1.33;;;;;;;30.06;26.49;100189.22;5106696;28;20497;-67
2022/09/13 10:04:39;;;;;;;3.33;1.10;;;;;;;29.64;26.97;100180.00;5106041;28;20129;-66
2022/09/13 10:07:29;;;;;;;2.00;1.20;;;;;;;29.31;27.23;100179.34;5106702;28;20024;-66
2022/09/13 10:10:00;;;;;;;2.25;1.10;;;;;;;28.95;27.60;100174.47;5104669;28;20048;-66
2022/09/13 10:12:32;;;;;;;1.65;0.98;;;;;;;28.60;27.31;100166.56;5104366;28;20020;-66
2022/09/13 10:15:19;;;;;;;2.55;1.30;;;;;;;28.32;27.64;100163.91;5103500;28;20115;-66
2022/09/13 10:18:14;;;;;;;2.95;1.52;;;;;;;28.05;27.78;100165.69;5105378;28;20091;-66
2022/09/13 10:20:41;;;;;;;2.38;1.10;;;;;;;27.63;28.79;100145.94;5105091;28;20039;-66
2022/09/13 10:23:20;;;;;;;2.15;1.20;;;;;;;27.50;28.75;100160.03;5105146;28;20035;-66
2022/09/13 10:26:01;;;;;;;2.00;1.35;;;;;;;27.15;29.43;100156.56;5105403;28;20023;-66
2022/09/13 10:28:29;;;;;;;3.95;1.45;;;;;;;26.85;30.31;100153.22;5103256;28;20066;-66
2022/09/13 10:31:08;;;;;;;2.58;1.30;;;;;;;26.64;30.26;100142.03;5105072;28;20067;-67
2022/09/13 10:33:41;;;;;;;2.30;1.20;;;;;;;26.46;30.13;100148.47;5104744;28;20030;-67
2022/09/13 10:36:15;;;;;;;1.65;1.10;;;;;;;26.24;30.54;100148.28;5104796;28;20501;-68
2022/09/13 10:38:50;;;;;;;2.72;1.10;;;;;;;25.98;30.72;100117.66;5104494;28;20027;-68
2022/09/13 10:41:26;;;;;;;2.80;1.40;;;;;;;26.07;30.56;100119.00;5105416;28;20415;-66
2022/09/13 10:44:00;;;;;;;2.50;1.35;;;;;;;26.41;30.39;100137.38;5102325;28;20035;-66
2022/09/13 10:46:27;;;;;;;;;;;;;;;26.30;31.16;100129.97;5105115;28;20054;-66
2022/09/13 10:48:56;;;;;;;2.72;1.30;;;;;;;26.25;31.28;100118.88;5104573;28;19911;-66
2022/09/13 10:51:24;;;;;;;3.22;1.17;;;;;;;26.25;31.19;100127.94;5104632;28;20015;-66
2022/09/13 10:53:50;;;;;;;3.47;1.38;;;;;;;26.14;31.36;100126.03;5104861;28;20100;-68
2022/09/13 10:56:25;;;;;;;4.20;1.58;;;;;;;26.18;30.80;100126.41;5106031;28;20482;-67
2022/09/13 10:59:10;;;;;;;2.33;1.30;;;;;;;26.05;31.04;100126.66;5105929;28;20043;-67
2022/09/13 11:02:21;;;;;;;2.00;1.50;;;;;;;25.93;31.37;100114.78;5104770;28;20448;-66
2022/09/13 11:05:05;;;;;;;3.40;1.30;;;;;;;25.81;31.14;100122.19;5090471;28;20042;-66
2022/09/13 11:07:59;;;;;;;1.98;1.30;;;;;;;25.78;31.17;100125.41;5104069;28;20097;-66
2022/09/13 11:10:30;;;;;;;2.30;1.70;;;;;;;25.56;31.47;100116.91;5105474;28;20209;-67
2022/09/13 11:13:11;;;;;;;3.40;1.38;;;;;;;25.46;31.69;100121.28;5105320;28;20019;-67
2022/09/13 11:15:58;;;;;;;1.30;1.20;;;;;;;25.50;31.62;100122.50;5105187;28;20031;-67
2022/09/13 11:18:50;;;;;;;2.35;1.15;;;;;;;25.45;31.89;100111.38;5108019;28;20057;-67
2022/09/13 11:21:24;;;;;;;1.40;1.30;;;;;;;25.48;31.10;100108.16;5109510;28;20027;-66
2022/09/13 11:24:05;;;;;;;3.60;1.52;;;;;;;25.48;31.25;100109.00;5109635;28;20039;-66
2022/09/13 11:26:42;;;;;;;2.38;1.73;;;;;;;25.40;31.78;100100.25;5108994;28;20031;-66
2022/09/13 11:29:24;;;;;;;3.45;1.30;;;;;;;25.47;30.82;100092.78;5109080;28;20069;-66
2022/09/13 11:31:56;;;;;;;1.58;1.35;;;;;;;25.44;31.02;100102.28;5109548;28;20039;-66
2022/09/13 11:34:21;;;;;;;2.13;1.58;;;;;;;25.37;31.78;100093.31;5109233;28;20048;-65
2022/09/13 11:37:11;;;;;;;2.63;1.38;;;;;;;25.35;31.31;100089.16;5109248;28;20020;-66
2022/09/13 11:39:43;;;;;;;1.50;1.25;;;;;;;25.29;31.77;100090.06;5107446;28;20019;-65
2022/09/13 11:42:35;;;;;;;3.67;1.55;;;;;;;25.37;31.46;100095.25;5108788;28;20032;-65
2022/09/13 11:45:27;;;;;;;2.80;1.33;;;;;;;25.39;31.40;100093.09;5107612;28;20085;-66
2022/09/13 11:48:11;;;;;;;1.65;1.23;;;;;;;25.31;31.68;100094.25;5109055;28;20386;-66
2022/09/13 11:50:57;;;;;;;2.58;1.48;;;;;;;25.22;32.09;100090.19;5108749;28;20561;-66
2022/09/13 11:54:04;;;;;;;2.72;1.40;;;;;;;25.15;32.27;100083.94;5097297;28;20429;-66